Time;durP1;ratioP1;P1;durP2;ratioP2;P2;SDS_P1;SDS_P2;PMS_P1;PMS_P2;Temp;Humidity;BMP_temperature;BMP_pressure;BME280_temperature;BME280_humidity;BME280_pressure;Samples;Min_cycle;Max_cycle;Signal;HPM_P1;HPM_P2
2024/01/21 00:00:43;;;;;;;11.50;5.90;;;;;;;-0.55;82.91;97773.80;108149;1282;138228;-86
2024/01/21 00:03:30;;;;;;;9.90;6.30;;;;;;;-0.54;82.85;97773.40;108316;1282;22558;-86
2024/01/21 00:05:57;;;;;;;11.20;5.70;;;;;;;-0.55;82.84;97777.70;108293;1275;138106;-86
2024/01/21 00:08:27;;;;;;;9.90;6.00;;;;;;;-0.55;82.86;97775.86;108336;1283;22559;-86
2024/01/21 00:10:53;;;;;;;9.10;6.00;;;;;;;-0.54;83.19;97772.23;108379;1281;22717;-85
2024/01/21 00:13:20;;;;;;;8.60;6.10;;;;;;;-0.53;83.62;97768.95;108292;1283;138000;-86
2024/01/21 00:15:47;;;;;;;11.60;5.80;;;;;;;-0.53;83.33;97775.92;108388;1282;22540;-86
2024/01/21 00:18:15;;;;;;;9.20;5.90;;;;;;;-0.53;83.76;97776.58;108421;1278;138382;-86
2024/01/21 00:20:45;;;;;;;18.80;9.40;;;;;;;-0.51;83.96;97781.23;108437;1276;22581;-86
2024/01/21 00:23:12;;;;;;;11.50;7.40;;;;;;;-0.51;83.87;97782.61;108435;1282;22588;-86
2024/01/21 00:25:39;;;;;;;9.30;5.50;;;;;;;-0.50;83.61;97788.17;108305;1278;138614;-86
2024/01/21 00:28:06;;;;;;;9.80;5.00;;;;;;;-0.48;83.58;97790.50;108389;1275;22581;-86
2024/01/21 00:30:33;;;;;;;14.60;7.70;;;;;;;-0.48;83.98;97795.43;108306;1278;138643;-86
2024/01/21 00:33:00;;;;;;;10.30;7.00;;;;;;;-0.48;83.80;97803.05;108341;1283;25489;-86
2024/01/21 00:35:26;;;;;;;9.00;5.60;;;;;;;-0.46;83.67;97804.84;108330;1283;22569;-86
2024/01/21 00:37:53;;;;;;;10.60;5.90;;;;;;;-0.44;83.73;97808.64;108272;1283;138004;-86
2024/01/21 00:40:20;;;;;;;6.80;5.00;;;;;;;-0.42;83.95;97811.60;108279;1282;22611;-86
2024/01/21 00:42:47;;;;;;;8.90;5.30;;;;;;;-0.41;83.72;97816.33;108287;1284;138949;-86
2024/01/21 00:45:14;;;;;;;6.20;4.50;;;;;;;-0.43;83.76;97814.72;108356;1283;23269;-86
2024/01/21 00:47:41;;;;;;;8.40;5.70;;;;;;;-0.44;84.16;97812.55;108249;1283;138103;-86
2024/01/21 00:50:08;;;;;;;11.40;5.50;;;;;;;-0.44;84.14;97815.32;108315;1268;23280;-86
2024/01/21 00:52:35;;;;;;;12.00;6.10;;;;;;;-0.42;84.52;97814.19;108473;1280;22571;-86
2024/01/21 00:55:03;;;;;;;8.30;4.20;;;;;;;-0.42;84.45;97815.02;108276;1275;138216;-86
2024/01/21 00:57:30;;;;;;;8.70;5.50;;;;;;;-0.42;84.12;97815.20;108405;1278;23887;-87
2024/01/21 00:59:58;;;;;;;10.60;5.70;;;;;;;-0.41;84.63;97819.91;108263;1282;138613;-86
2024/01/21 01:02:24;;;;;;;9.40;6.10;;;;;;;-0.39;84.84;97819.95;108340;1282;23261;-86
2024/01/21 01:04:51;;;;;;;11.60;6.80;;;;;;;-0.37;85.14;97820.84;108338;1283;22758;-86
2024/01/21 01:07:18;;;;;;;10.10;5.50;;;;;;;-0.36;85.04;97817.56;108279;1282;138180;-85
2024/01/21 01:09:45;;;;;;;14.00;6.60;;;;;;;-0.37;84.77;97815.22;108410;1282;22521;-86
2024/01/21 01:12:12;;;;;;;10.60;6.00;;;;;;;-0.38;85.02;97816.81;108407;1275;138327;-86
2024/01/21 01:14:42;;;;;;;10.30;5.90;;;;;;;-0.38;85.32;97821.29;108287;1283;22598;-86
2024/01/21 01:17:08;;;;;;;12.40;6.30;;;;;;;-0.39;85.98;97822.52;108387;1282;22533;-86
2024/01/21 01:19:41;;;;;;;8.10;5.90;;;;;;;-0.40;85.32;97823.58;108441;1280;138313;-86
2024/01/21 01:22:09;;;;;;;11.90;6.00;;;;;;;-0.37;85.61;97825.48;108334;1283;22604;-86
2024/01/21 01:24:37;;;;;;;11.50;6.10;;;;;;;-0.36;85.83;97826.58;108310;1282;138081;-86
2024/01/21 01:27:03;;;;;;;11.50;4.90;;;;;;;-0.37;85.47;97822.39;108351;1276;22638;-86
2024/01/21 01:29:31;;;;;;;9.00;5.30;;;;;;;-0.39;85.44;97823.17;108339;1280;22568;-86
2024/01/21 01:31:57;;;;;;;6.60;4.50;;;;;;;-0.40;85.37;97823.90;108243;1283;138006;-86
2024/01/21 01:34:24;;;;;;;10.20;6.10;;;;;;;-0.40;85.50;97821.70;108373;1282;24244;-86
2024/01/21 01:36:51;;;;;;;8.80;5.00;;;;;;;-0.41;85.48;97822.96;108212;1283;138238;-86
2024/01/21 01:39:19;;;;;;;8.00;5.90;;;;;;;-0.42;85.67;97823.00;108299;1283;596205;-85
2024/01/21 01:41:46;;;;;;;11.20;5.50;;;;;;;-0.41;85.67;97823.14;108249;1283;138423;-86
2024/01/21 01:44:13;;;;;;;8.20;5.30;;;;;;;-0.41;85.39;97826.90;108385;1280;23379;-86
2024/01/21 01:46:40;;;;;;;8.30;5.90;;;;;;;-0.41;85.89;97826.33;108397;1276;23350;-86
2024/01/21 01:49:07;;;;;;;10.10;5.90;;;;;;;-0.38;85.81;97828.42;108220;1274;137983;-85
2024/01/21 01:51:36;;;;;;;7.10;5.60;;;;;;;-0.38;85.85;97834.57;108421;1278;22539;-86
2024/01/21 01:54:05;;;;;;;10.10;5.30;;;;;;;-0.40;86.04;97838.20;108282;1283;138168;-86
2024/01/21 01:56:34;;;;;;;9.10;5.30;;;;;;;-0.41;85.64;97840.49;108304;1283;22569;-86
2024/01/21 01:59:03;;;;;;;8.80;5.60;;;;;;;-0.42;85.77;97845.48;108320;1281;25491;-87
2024/01/21 02:01:30;;;;;;;10.50;5.60;;;;;;;-0.41;85.80;97845.62;108279;1283;138050;-86
2024/01/21 02:03:57;;;;;;;7.80;5.30;;;;;;;-0.41;86.16;97845.93;108386;1262;22523;-86
2024/01/21 02:06:25;;;;;;;9.00;5.40;;;;;;;-0.40;86.55;97846.39;108265;1281;138141;-86
2024/01/21 02:08:51;;;;;;;9.20;6.10;;;;;;;-0.38;86.84;97846.30;108355;1282;22546;-86
2024/01/21 02:11:18;;;;;;;9.20;4.50;;;;;;;-0.36;86.97;97848.72;108321;1284;22564;-87
2024/01/21 02:13:45;;;;;;;7.10;4.80;;;;;;;-0.34;87.31;97850.70;108243;1283;138086;-85
2024/01/21 02:16:12;;;;;;;13.70;7.50;;;;;;;-0.30;87.85;97848.31;108401;1275;22595;-86
2024/01/21 02:18:39;;;;;;;9.80;5.50;;;;;;;-0.33;88.06;97845.34;108281;1283;138210;-86
2024/01/21 02:21:06;;;;;;;8.10;5.30;;;;;;;-0.39;88.12;97848.22;108455;1281;22550;-87
2024/01/21 02:23:33;;;;;;;11.90;5.00;;;;;;;-0.40;88.59;97848.59;108282;1264;23981;-85
2024/01/21 02:26:00;;;;;;;11.10;5.80;;;;;;;-0.41;88.56;97842.52;108291;1282;138283;-84
2024/01/21 02:28:26;;;;;;;13.30;8.80;;;;;;;-0.41;88.90;97839.47;108362;1281;25115;-85
2024/01/21 02:30:53;;;;;;;15.90;7.40;;;;;;;-0.42;89.14;97838.15;108344;1282;138897;-85
2024/01/21 02:33:20;;;;;;;13.20;9.10;;;;;;;-0.43;89.43;97833.27;108414;1283;23079;-85
2024/01/21 02:35:47;;;;;;;12.20;7.90;;;;;;;-0.44;89.47;97836.04;108290;1279;138338;-85
2024/01/21 02:38:14;;;;;;;13.20;8.70;;;;;;;-0.43;89.67;97833.95;108351;1278;22556;-85
2024/01/21 02:40:41;;;;;;;9.60;6.80;;;;;;;-0.46;90.32;97831.93;108238;1281;22527;-85
2024/01/21 02:43:11;;;;;;;15.60;10.80;;;;;;;-0.49;90.60;97837.86;108157;1281;138044;-85
2024/01/21 02:45:38;;;;;;;13.20;8.40;;;;;;;-0.49;90.71;97842.95;108296;1283;22498;-84
2024/01/21 02:48:05;;;;;;;11.90;7.30;;;;;;;-0.48;90.24;97843.09;108308;1282;138510;-85
2024/01/21 02:50:32;;;;;;;14.10;7.90;;;;;;;-0.45;90.35;97834.09;108346;1283;22616;-85
2024/01/21 02:52:59;;;;;;;12.30;7.10;;;;;;;-0.47;91.27;97832.30;108396;1282;22663;-85
2024/01/21 02:55:27;;;;;;;12.80;7.70;;;;;;;-0.49;90.88;97831.89;108302;1282;138363;-85
2024/01/21 02:57:54;;;;;;;10.80;6.40;;;;;;;-0.50;90.44;97833.11;108285;1276;22543;-85
2024/01/21 03:00:21;;;;;;;10.30;5.90;;;;;;;-0.50;91.14;97837.19;108296;1283;139604;-85
2024/01/21 03:02:49;;;;;;;7.90;6.10;;;;;;;-0.49;90.82;97837.52;108400;1283;22788;-84
2024/01/21 03:05:16;;;;;;;9.30;5.60;;;;;;;-0.49;90.64;97834.95;108241;1283;22570;-85
2024/01/21 03:07:43;;;;;;;12.00;6.10;;;;;;;-0.49;90.23;97834.60;108288;1282;138208;-85
2024/01/21 03:10:13;;;;;;;10.70;5.80;;;;;;;-0.47;90.60;97829.91;108370;1283;22533;-85
2024/01/21 03:12:40;;;;;;;10.60;5.50;;;;;;;-0.45;90.80;97834.07;108248;1283;138734;-84
2024/01/21 03:15:07;;;;;;;11.40;6.60;;;;;;;-0.42;90.71;97834.92;108341;1275;22635;-85
2024/01/21 03:17:34;;;;;;;9.00;5.60;;;;;;;-0.39;90.46;97838.52;108339;1281;22585;-85
2024/01/21 03:20:05;;;;;;;9.00;6.40;;;;;;;-0.38;90.36;97836.77;108152;1283;138041;-85
2024/01/21 03:22:32;;;;;;;14.00;7.40;;;;;;;-0.35;90.91;97839.81;108346;1283;22572;-85
2024/01/21 03:24:59;;;;;;;15.60;8.40;;;;;;;-0.33;91.03;97838.71;108217;1282;138798;-85
2024/01/21 03:27:26;;;;;;;11.30;6.50;;;;;;;-0.35;90.74;97835.94;108312;1284;24847;-85
2024/01/21 03:29:55;;;;;;;13.70;6.50;;;;;;;-0.34;91.00;97841.64;108155;1283;138677;-86
2024/01/21 03:32:21;;;;;;;13.20;7.00;;;;;;;-0.36;90.52;97846.04;108344;1283;23345;-85
2024/01/21 03:34:51;;;;;;;9.40;5.50;;;;;;;-0.35;90.37;97847.83;108376;1279;23168;-85
2024/01/21 03:37:18;;;;;;;12.20;6.80;;;;;;;-0.33;90.19;97845.38;108287;1282;138485;-86
2024/01/21 03:39:44;;;;;;;15.20;9.80;;;;;;;-0.33;90.42;97842.45;108474;1283;22540;-86
2024/01/21 03:42:11;;;;;;;15.10;8.50;;;;;;;-0.35;90.57;97840.16;108287;1283;139094;-86
2024/01/21 03:44:38;;;;;;;16.50;8.70;;;;;;;-0.36;90.54;97842.25;108300;1279;22539;-87
2024/01/21 03:47:05;;;;;;;13.20;8.00;;;;;;;-0.37;90.95;97839.92;108302;1282;22576;-86
2024/01/21 03:49:32;;;;;;;12.50;7.00;;;;;;;-0.38;91.28;97843.41;108281;1280;138341;-86
2024/01/21 03:51:59;;;;;;;11.20;7.40;;;;;;;-0.40;91.44;97842.49;108361;1283;22564;-86
2024/01/21 03:54:26;;;;;;;14.40;6.80;;;;;;;-0.40;91.16;97839.91;108247;1283;138931;-86
2024/01/21 03:56:53;;;;;;;13.50;7.20;;;;;;;-0.41;91.02;97841.17;108431;1280;25161;-86
2024/01/21 03:59:21;;;;;;;10.50;5.90;;;;;;;-0.41;91.54;97843.38;108414;1282;22565;-86
2024/01/21 04:01:49;;;;;;;10.50;6.00;;;;;;;-0.38;91.89;97839.50;108242;1283;138518;-86
2024/01/21 04:04:16;;;;;;;12.30;6.10;;;;;;;-0.34;92.02;97836.03;108391;1282;22553;-86
2024/01/21 04:06:43;;;;;;;12.90;6.50;;;;;;;-0.37;91.58;97837.91;108294;1283;138823;-86
2024/01/21 04:09:13;;;;;;;16.40;6.20;;;;;;;-0.38;91.47;97841.35;108381;1282;22531;-86
2024/01/21 04:11:42;;;;;;;12.00;5.40;;;;;;;-0.37;91.60;97841.64;108073;1284;139177;-86
2024/01/21 04:14:09;;;;;;;15.10;6.50;;;;;;;-0.36;91.51;97843.96;108389;1275;22607;-86
2024/01/21 04:16:39;;;;;;;10.30;5.60;;;;;;;-0.35;91.67;97845.24;108361;1279;25258;-86
2024/01/21 04:19:07;;;;;;;11.80;6.90;;;;;;;-0.32;92.24;97846.52;108235;1282;138756;-86
2024/01/21 04:21:34;;;;;;;12.40;7.10;;;;;;;-0.31;92.12;97843.91;108360;1283;22627;-86
2024/01/21 04:24:04;;;;;;;10.40;6.10;;;;;;;-0.27;92.54;97842.20;108398;1283;138280;-86
2024/01/21 04:26:30;;;;;;;10.80;6.00;;;;;;;-0.25;92.64;97841.71;108400;1282;22632;-86
2024/01/21 04:28:57;;;;;;;8.30;4.90;;;;;;;-0.21;93.05;97845.77;108440;1283;22551;-86
2024/01/21 04:31:24;;;;;;;9.70;5.00;;;;;;;-0.17;93.10;97852.20;108333;1275;138647;-86
2024/01/21 04:33:51;;;;;;;10.80;5.50;;;;;;;-0.16;93.39;97855.73;108397;1283;23875;-86
2024/01/21 04:36:18;;;;;;;9.90;5.20;;;;;;;-0.14;93.85;97856.16;108282;1283;138470;-86
2024/01/21 04:38:45;;;;;;;14.20;6.90;;;;;;;-0.13;94.10;97851.35;108387;1283;22658;-86
2024/01/21 04:41:13;;;;;;;12.30;6.20;;;;;;;-0.13;94.21;97851.98;108365;1283;23240;-87
2024/01/21 04:43:39;;;;;;;10.30;6.10;;;;;;;-0.11;94.32;97857.31;108227;1284;139497;-86
2024/01/21 04:46:06;;;;;;;9.30;5.20;;;;;;;-0.11;94.33;97862.75;108451;1283;22615;-85
2024/01/21 04:48:33;;;;;;;8.10;4.60;;;;;;;-0.12;94.60;97867.75;108179;1283;138774;-86
2024/01/21 04:51:00;;;;;;;10.10;5.10;;;;;;;-0.11;94.45;97867.57;108429;1282;22533;-86
2024/01/21 04:53:34;;;;;;;10.40;5.30;;;;;;;-0.11;94.53;97869.79;108396;1282;22661;-86
2024/01/21 04:56:10;;;;;;;9.60;4.50;;;;;;;-0.13;94.75;97874.48;108313;1282;137925;-85
2024/01/21 04:58:37;;;;;;;11.60;5.10;;;;;;;-0.12;94.66;97878.00;108437;1283;22551;-85
2024/01/21 05:01:04;;;;;;;10.20;5.00;;;;;;;-0.12;94.03;97881.23;108327;1282;138316;-87
2024/01/21 05:03:31;;;;;;;10.70;4.70;;;;;;;-0.13;94.51;97879.73;108358;1283;22562;-86
2024/01/21 05:05:58;;;;;;;8.90;5.00;;;;;;;-0.10;94.58;97879.27;108276;1282;138297;-86
2024/01/21 05:08:25;;;;;;;10.60;5.30;;;;;;;-0.11;94.63;97877.25;108354;1283;22541;-86
2024/01/21 05:10:52;;;;;;;9.60;5.40;;;;;;;-0.11;94.82;97882.54;108371;1282;22545;-86
2024/01/21 05:13:19;;;;;;;10.80;6.20;;;;;;;-0.11;94.10;97882.35;108276;1283;138174;-87
2024/01/21 05:15:46;;;;;;;9.70;5.50;;;;;;;-0.08;93.86;97880.70;108384;1282;23027;-87
2024/01/21 05:18:18;;;;;;;8.50;5.10;;;;;;;-0.09;94.34;97879.20;108312;1282;138633;-86
2024/01/21 05:20:46;;;;;;;10.60;6.20;;;;;;;-0.09;95.02;97880.55;108373;1282;22520;-86
2024/01/21 05:23:13;;;;;;;14.40;6.40;;;;;;;-0.06;94.79;97886.53;108370;1279;22545;-86
2024/01/21 05:25:40;;;;;;;10.20;5.80;;;;;;;-0.06;94.74;97886.89;108226;1283;139451;-87
2024/01/21 05:28:10;;;;;;;10.70;5.30;;;;;;;-0.06;95.01;97883.79;108442;1275;22626;-86
2024/01/21 05:30:36;;;;;;;9.90;5.90;;;;;;;-0.06;94.76;97882.79;108343;1275;138560;-87
2024/01/21 05:33:03;;;;;;;9.50;5.40;;;;;;;-0.05;95.23;97884.06;108397;1283;23285;-87
2024/01/21 05:35:30;;;;;;;13.90;6.60;;;;;;;-0.04;95.10;97884.02;108441;1282;22794;-87
2024/01/21 05:37:58;;;;;;;9.50;5.10;;;;;;;-0.05;94.68;97883.23;108403;1281;138673;-85
2024/01/21 05:40:27;;;;;;;9.60;5.30;;;;;;;-0.07;94.93;97879.77;108456;1282;22572;-86
2024/01/21 05:42:54;;;;;;;9.60;5.20;;;;;;;-0.06;95.27;97878.70;108311;1283;138042;-86
2024/01/21 05:45:20;;;;;;;14.20;7.60;;;;;;;-0.07;95.80;97879.24;108399;1276;25336;-86
2024/01/21 05:47:48;;;;;;;15.00;5.40;;;;;;;-0.09;95.59;97877.17;108312;1282;139215;-85
2024/01/21 05:50:15;;;;;;;11.80;5.90;;;;;;;-0.13;95.38;97881.30;108522;1274;22518;-85
2024/01/21 05:52:44;;;;;;;17.80;7.20;;;;;;;-0.18;95.51;97878.98;108410;1282;22533;-85
2024/01/21 05:55:20;;;;;;;11.70;5.80;;;;;;;-0.20;95.42;97881.48;108338;1283;138470;-84
2024/01/21 05:57:48;;;;;;;17.10;6.80;;;;;;;-0.19;95.52;97878.84;108317;1282;25340;-85
2024/01/21 06:00:15;;;;;;;12.90;5.90;;;;;;;-0.20;95.79;97873.61;108292;1284;138459;-85
2024/01/21 06:02:42;;;;;;;11.20;5.90;;;;;;;-0.21;96.23;97867.58;108314;1283;24009;-84
2024/01/21 06:05:09;;;;;;;14.10;6.20;;;;;;;-0.23;95.96;97865.13;108455;1282;22545;-85
2024/01/21 06:07:36;;;;;;;18.90;7.10;;;;;;;-0.26;96.09;97865.44;108158;1282;138375;-85
2024/01/21 06:10:03;;;;;;;13.80;6.20;;;;;;;-0.27;96.48;97865.36;108384;1283;22694;-85
2024/01/21 06:12:30;;;;;;;13.10;6.00;;;;;;;-0.27;96.22;97864.13;108243;1283;138466;-85
2024/01/21 06:14:59;;;;;;;15.00;7.90;;;;;;;-0.25;96.79;97862.48;108388;1282;22984;-85
2024/01/21 06:17:26;;;;;;;14.10;6.10;;;;;;;-0.23;96.94;97861.53;108323;1282;22565;-85
2024/01/21 06:19:52;;;;;;;13.90;6.40;;;;;;;-0.25;96.20;97862.85;108227;1282;142477;-85
2024/01/21 06:22:19;;;;;;;15.80;7.20;;;;;;;-0.26;95.83;97865.47;108240;1275;22646;-85
2024/01/21 06:24:49;;;;;;;17.50;7.80;;;;;;;-0.25;95.86;97865.91;108246;1282;138315;-85
2024/01/21 06:27:15;;;;;;;14.60;7.30;;;;;;;-0.26;95.43;97861.87;108328;1282;22561;-85
2024/01/21 06:29:45;;;;;;;20.10;8.60;;;;;;;-0.26;95.70;97859.84;108241;1283;138370;-85
2024/01/21 06:32:12;;;;;;;12.30;5.60;;;;;;;-0.26;95.75;97857.42;108392;1282;22538;-86
2024/01/21 06:34:39;;;;;;;12.90;5.90;;;;;;;-0.22;95.69;97859.11;108379;1283;22744;-85
2024/01/21 06:37:07;;;;;;;13.40;6.30;;;;;;;-0.20;95.31;97861.70;108329;1282;138329;-86
2024/01/21 06:39:34;;;;;;;10.80;6.20;;;;;;;-0.17;95.47;97861.21;108364;1275;22555;-86
2024/01/21 06:42:04;;;;;;;12.80;6.50;;;;;;;-0.15;95.12;97860.14;108322;1282;138319;-86
2024/01/21 06:44:31;;;;;;;12.10;6.50;;;;;;;-0.17;95.04;97854.39;108357;1282;22549;-87
2024/01/21 06:47:00;;;;;;;10.80;6.60;;;;;;;-0.16;95.08;97855.22;108437;1283;22708;-87
2024/01/21 06:49:32;;;;;;;28.20;16.50;;;;;;;-0.15;95.46;97856.35;108346;1282;139409;-86
2024/01/21 06:51:59;;;;;;;37.60;21.50;;;;;;;-0.13;95.84;97860.52;108274;1283;22545;-86
2024/01/21 06:54:25;;;;;;;37.00;21.00;;;;;;;-0.11;95.57;97866.20;108343;1282;138953;-86
2024/01/21 06:56:56;;;;;;;38.60;23.50;;;;;;;-0.08;96.09;97864.00;108556;1282;24248;-85
2024/01/21 06:59:23;;;;;;;45.80;27.20;;;;;;;-0.04;95.82;97864.98;108461;1283;24297;-85
2024/01/21 07:01:50;;;;;;;48.90;27.80;;;;;;;0.00;95.50;97869.69;108284;1282;138738;-85
2024/01/21 07:04:20;;;;;;;59.90;30.60;;;;;;;0.04;95.17;97866.31;108333;1282;22610;-86
2024/01/21 07:06:47;;;;;;;44.60;23.70;;;;;;;0.06;95.28;97867.88;108268;1282;138817;-86
2024/01/21 07:09:14;;;;;;;35.80;21.40;;;;;;;0.09;95.45;97869.23;108328;1282;23295;-85
2024/01/21 07:11:43;;;;;;;36.00;21.40;;;;;;;0.15;95.47;97871.98;108178;1284;138624;-85
2024/01/21 07:14:09;;;;;;;35.60;21.40;;;;;;;0.22;95.82;97870.58;108359;1275;22554;-86
2024/01/21 07:16:40;;;;;;;49.90;26.70;;;;;;;0.25;95.43;97870.42;108279;1284;22572;-86
2024/01/21 07:19:09;;;;;;;54.90;30.10;;;;;;;0.26;95.27;97867.79;108307;1278;138127;-86
2024/01/21 07:21:36;;;;;;;47.80;26.80;;;;;;;0.23;94.66;97867.66;108378;1282;24377;-86
2024/01/21 07:24:03;;;;;;;53.50;28.70;;;;;;;0.20;94.33;97870.23;108175;1282;137630;-87
2024/01/21 07:26:30;;;;;;;61.40;30.90;;;;;;;0.14;94.31;97871.04;108379;1283;22539;-86
2024/01/21 07:28:56;;;;;;;65.70;32.20;;;;;;;0.12;94.58;97870.27;108603;1282;22595;-86
2024/01/21 07:31:24;;;;;;;66.60;32.20;;;;;;;0.12;94.83;97874.03;108217;1282;137488;-86
2024/01/21 07:33:51;;;;;;;34.30;19.10;;;;;;;0.10;94.87;97874.45;108451;1281;24411;-86
2024/01/21 07:36:18;;;;;;;20.40;12.30;;;;;;;0.10;94.77;97872.23;108268;1283;137968;-86
2024/01/21 07:38:45;;;;;;;13.00;6.40;;;;;;;0.07;94.63;97872.75;108324;1284;22537;-87
2024/01/21 07:41:12;;;;;;;11.80;5.80;;;;;;;0.03;94.43;97872.14;108340;1282;24199;-87
2024/01/21 07:43:39;;;;;;;9.50;5.50;;;;;;;0.02;94.33;97875.09;108300;1283;138474;-86
2024/01/21 07:46:14;;;;;;;10.00;5.60;;;;;;;-0.01;94.21;97877.24;108430;1283;26301;-86
2024/01/21 07:48:41;;;;;;;11.20;5.60;;;;;;;-0.04;93.91;97874.64;108237;1282;138200;-87
2024/01/21 07:51:10;;;;;;;11.20;5.30;;;;;;;-0.02;94.08;97874.92;108381;1284;23473;-86
2024/01/21 07:53:38;;;;;;;11.10;5.20;;;;;;;-0.06;93.42;97878.18;108550;1283;22534;-86
2024/01/21 07:56:19;;;;;;;9.40;5.50;;;;;;;-0.14;93.00;97876.06;108461;1284;25428;-87
2024/01/21 07:58:49;;;;;;;10.90;6.30;;;;;;;-0.19;92.78;97879.04;108433;1280;25374;-86
2024/01/21 08:01:20;;;;;;;9.50;6.30;;;;;;;-0.27;92.61;97885.92;108420;1283;137483;-86
2024/01/21 08:03:47;;;;;;;10.70;5.70;;;;;;;-0.34;92.43;97889.83;108450;1278;22562;-85
2024/01/21 08:06:17;;;;;;;10.90;6.60;;;;;;;-0.38;92.49;97889.20;108326;1283;137699;-87
2024/01/21 08:08:44;;;;;;;9.90;5.40;;;;;;;-0.42;92.89;97890.06;108425;1280;22804;-86
2024/01/21 08:11:10;;;;;;;10.30;5.50;;;;;;;-0.47;92.86;97892.04;108274;1284;22560;-86
2024/01/21 08:13:38;;;;;;;10.40;5.90;;;;;;;-0.53;92.58;97894.92;108409;1283;137626;-87
2024/01/21 08:16:07;;;;;;;11.10;6.70;;;;;;;-0.61;93.19;97895.29;108409;1280;24340;-87
2024/01/21 08:18:35;;;;;;;12.00;6.20;;;;;;;-0.64;93.30;97898.83;108263;1277;137869;-87
2024/01/21 08:21:02;;;;;;;10.00;6.10;;;;;;;-0.62;93.44;97900.81;108408;1283;22613;-84
2024/01/21 08:23:29;;;;;;;9.90;4.70;;;;;;;-0.59;93.57;97903.88;108354;1276;22530;-82
2024/01/21 08:25:56;;;;;;;8.70;4.80;;;;;;;-0.60;93.05;97909.39;108263;1284;137860;-83
2024/01/21 08:28:25;;;;;;;9.10;4.80;;;;;;;-0.63;93.27;97916.33;108365;1284;23248;-83
2024/01/21 08:30:55;;;;;;;10.00;5.00;;;;;;;-0.64;93.37;97913.98;108291;1284;137980;-83
2024/01/21 08:33:22;;;;;;;7.60;4.70;;;;;;;-0.62;93.25;97914.04;108421;1283;22578;-84
2024/01/21 08:35:49;;;;;;;11.10;4.90;;;;;;;-0.64;93.20;97917.71;108237;1280;137395;-85
2024/01/21 08:38:16;;;;;;;10.10;5.30;;;;;;;-0.67;92.93;97924.86;108334;1283;22577;-83
2024/01/21 08:40:43;;;;;;;11.50;5.40;;;;;;;-0.67;93.03;97927.08;108318;1284;22573;-83
2024/01/21 08:43:12;;;;;;;8.40;5.20;;;;;;;-0.65;93.67;97927.65;108172;1283;137432;-83
2024/01/21 08:45:39;;;;;;;11.90;5.50;;;;;;;-0.65;93.57;97933.60;108294;1283;22553;-84
2024/01/21 08:48:06;;;;;;;8.70;5.10;;;;;;;-0.69;93.42;97940.27;108177;1284;138126;-84
2024/01/21 08:50:33;;;;;;;9.00;5.50;;;;;;;-0.75;93.42;97940.41;108337;1283;22583;-85
2024/01/21 08:53:00;;;;;;;9.70;5.50;;;;;;;-0.83;93.22;97940.09;108394;1284;25470;-85
2024/01/21 08:55:27;;;;;;;9.90;5.10;;;;;;;-0.90;93.13;97940.11;108214;1282;137573;-86
2024/01/21 08:57:55;;;;;;;6.90;5.40;;;;;;;-0.93;93.19;97943.14;108371;1284;24204;-85
2024/01/21 09:00:22;;;;;;;9.80;6.40;;;;;;;-0.93;93.11;97947.22;108209;1284;138420;-85
2024/01/21 09:02:49;;;;;;;9.20;4.90;;;;;;;-0.92;93.29;97943.77;108298;1285;22563;-87
2024/01/21 09:05:18;;;;;;;10.00;5.30;;;;;;;-0.94;93.13;97937.52;108375;1283;25318;-85
2024/01/21 09:07:45;;;;;;;8.90;5.30;;;;;;;-0.90;93.50;97937.55;108265;1274;138125;-84
2024/01/21 09:10:12;;;;;;;9.00;5.50;;;;;;;-0.85;93.90;97936.77;108306;1284;22588;-85
2024/01/21 09:12:42;;;;;;;9.20;5.90;;;;;;;-0.82;93.36;97937.85;108310;1285;137682;-84
2024/01/21 09:15:09;;;;;;;8.80;5.40;;;;;;;-0.85;93.42;97935.27;108212;1285;22601;-84
2024/01/21 09:17:35;;;;;;;8.80;6.00;;;;;;;-0.80;93.98;97948.80;108412;1284;22576;-84
2024/01/21 09:20:02;;;;;;;10.20;5.70;;;;;;;-0.79;93.80;97949.10;108227;1284;138149;-84
2024/01/21 09:22:29;;;;;;;12.60;6.20;;;;;;;-0.81;93.85;97949.20;108302;1284;22748;-85
2024/01/21 09:24:56;;;;;;;8.80;6.00;;;;;;;-0.83;94.09;97943.30;108196;1284;138051;-84
2024/01/21 09:27:26;;;;;;;11.20;6.00;;;;;;;-0.84;94.07;97943.35;108327;1280;22530;-84
2024/01/21 09:29:53;;;;;;;10.70;5.70;;;;;;;-0.85;94.37;97942.25;108114;1285;137962;-84
2024/01/21 09:32:20;;;;;;;11.00;5.60;;;;;;;-0.80;94.46;97939.30;108345;1285;24412;-84
2024/01/21 09:34:47;;;;;;;9.10;5.80;;;;;;;-0.76;94.30;97937.73;108328;1284;22666;-84
2024/01/21 09:37:14;;;;;;;11.30;6.30;;;;;;;-0.74;94.65;97932.51;108283;1280;138014;-85
2024/01/21 09:39:41;;;;;;;10.90;5.50;;;;;;;-0.70;94.38;97930.77;108322;1280;22601;-84
2024/01/21 09:42:08;;;;;;;11.30;5.70;;;;;;;-0.65;94.93;97923.38;108116;1282;138543;-84
2024/01/21 09:44:35;;;;;;;8.60;5.20;;;;;;;-0.60;94.91;97919.75;108395;1284;22535;-85
2024/01/21 09:47:02;;;;;;;11.80;5.70;;;;;;;-0.54;94.67;97912.11;108320;1283;22612;-85
2024/01/21 09:49:31;;;;;;;10.30;5.90;;;;;;;-0.54;94.64;97911.98;108144;1283;137701;-84
2024/01/21 09:52:00;;;;;;;12.60;6.40;;;;;;;-0.51;94.92;97915.04;108241;1284;22540;-84
2024/01/21 09:54:27;;;;;;;10.30;6.60;;;;;;;-0.52;94.80;97915.78;108203;1284;137553;-84
2024/01/21 09:56:55;;;;;;;14.70;8.50;;;;;;;-0.52;95.56;97918.16;108250;1284;25468;-84
2024/01/21 09:59:22;;;;;;;14.90;8.10;;;;;;;-0.44;95.85;97916.40;108308;1284;23342;-84
2024/01/21 10:01:48;;;;;;;10.80;6.30;;;;;;;-0.41;95.79;97916.93;108205;1284;137916;-85
2024/01/21 10:04:15;;;;;;;9.70;5.10;;;;;;;-0.39;96.07;97914.94;108296;1280;22575;-85
2024/01/21 10:06:42;;;;;;;10.10;5.20;;;;;;;-0.32;96.25;97914.63;108131;1283;138240;-84
2024/01/21 10:09:19;;;;;;;7.80;5.00;;;;;;;-0.26;96.35;97911.58;108378;1283;22534;-85
2024/01/21 10:11:50;;;;;;;10.10;6.20;;;;;;;-0.16;96.60;97911.27;108276;1283;138134;-85
2024/01/21 10:14:16;;;;;;;12.40;6.10;;;;;;;-0.07;96.33;97903.44;108386;1280;23450;-85
2024/01/21 10:16:43;;;;;;;10.90;6.50;;;;;;;0.02;96.15;97903.17;108342;1283;24399;-85
2024/01/21 10:19:16;;;;;;;10.50;6.30;;;;;;;0.11;96.04;97906.83;108205;1284;137470;-85
2024/01/21 10:21:43;;;;;;;11.10;6.50;;;;;;;0.14;95.43;97906.41;108284;1283;22581;-84
2024/01/21 10:24:10;;;;;;;11.40;6.60;;;;;;;0.15;95.80;97901.45;108195;1281;137459;-84
2024/01/21 10:26:38;;;;;;;9.80;5.90;;;;;;;0.16;95.71;97900.73;108317;1284;22536;-84
2024/01/21 10:29:05;;;;;;;6.60;5.10;;;;;;;0.18;95.85;97896.73;108299;1276;25265;-84
2024/01/21 10:31:32;;;;;;;14.90;7.50;;;;;;;0.21;96.04;97896.39;108209;1280;137125;-84
2024/01/21 10:34:02;;;;;;;11.10;5.90;;;;;;;0.25;96.08;97896.98;108286;1283;22617;-84
2024/01/21 10:36:33;;;;;;;10.80;6.10;;;;;;;0.26;95.80;97890.14;108161;1276;137931;-85
2024/01/21 10:39:06;;;;;;;12.30;7.20;;;;;;;0.31;95.92;97888.02;108288;1285;24348;-85
2024/01/21 10:41:36;;;;;;;10.40;6.20;;;;;;;0.37;95.49;97884.62;108264;1283;25415;-85
2024/01/21 10:44:03;;;;;;;10.40;5.60;;;;;;;0.45;95.53;97885.23;108315;1283;137852;-84
2024/01/21 10:46:31;;;;;;;12.90;6.10;;;;;;;0.52;95.75;97879.36;108310;1284;22595;-85
2024/01/21 10:49:00;;;;;;;7.30;5.00;;;;;;;0.55;95.07;97871.88;108204;1284;137090;-85
2024/01/21 10:51:31;;;;;;;12.90;6.70;;;;;;;0.57;95.10;97865.95;108295;1277;25254;-84
2024/01/21 10:54:03;;;;;;;14.50;8.00;;;;;;;0.65;95.36;97856.48;108216;1285;137857;-85
2024/01/21 10:56:34;;;;;;;14.00;8.40;;;;;;;0.71;95.49;97854.63;108221;1284;22645;-85
2024/01/21 10:59:03;;;;;;;10.00;6.50;;;;;;;0.75;95.12;97844.02;108315;1284;22529;-85
2024/01/21 11:01:33;;;;;;;15.50;9.00;;;;;;;0.78;95.39;97843.48;108260;1283;137343;-84
2024/01/21 11:04:10;;;;;;;15.40;9.80;;;;;;;0.81;95.63;97846.02;108300;1282;22532;-84
2024/01/21 11:06:37;;;;;;;15.90;8.70;;;;;;;0.85;95.40;97852.83;108233;1283;137484;-85
2024/01/21 11:09:06;;;;;;;9.20;6.30;;;;;;;0.92;95.66;97851.21;108393;1281;22975;-85
2024/01/21 11:11:33;;;;;;;10.00;6.20;;;;;;;0.94;95.52;97843.95;108324;1282;22564;-85
2024/01/21 11:14:00;;;;;;;10.10;6.50;;;;;;;0.96;95.58;97835.50;108192;1277;138101;-85
2024/01/21 11:16:26;;;;;;;7.60;5.00;;;;;;;0.99;95.79;97829.53;108383;1285;22578;-84
2024/01/21 11:18:53;;;;;;;10.70;6.90;;;;;;;1.03;95.83;97826.54;108269;1281;138155;-85